Time;durP1;ratioP1;P1;durP2;ratioP2;P2;SDS_P1;SDS_P2;PMS_P1;PMS_P2;Temp;Humidity;BMP_temperature;BMP_pressure;BME280_temperature;BME280_humidity;BME280_pressure;Samples;Min_cycle;Max_cycle;Signal;HPM_P1;HPM_P2
2023/09/08 00:02:27;;;;;;;6.57;5.95;;;21.90;96.50;;;;;;5033708;28;20037;-83
2023/09/08 00:04:53;;;;;;;7.28;6.38;;;21.80;96.60;;;;;;5048613;28;20021;-83
2023/09/08 00:07:18;;;;;;;6.75;5.63;;;21.80;96.70;;;;;;5077113;28;20041;-82
2023/09/08 00:09:44;;;;;;;6.55;5.95;;;21.80;96.70;;;;;;5069673;28;20077;-82
2023/09/08 00:12:10;;;;;;;6.60;6.00;;;21.70;96.80;;;;;;5056080;28;20021;-82
2023/09/08 00:14:35;;;;;;;8.02;6.43;;;21.70;96.90;;;;;;5039110;28;20094;-82
2023/09/08 00:17:01;;;;;;;6.13;5.50;;;21.60;96.90;;;;;;5034855;28;20113;-83
2023/09/08 00:19:26;;;;;;;8.05;5.97;;;21.60;97.00;;;;;;5026347;28;20025;-83
2023/09/08 00:21:52;;;;;;;6.47;5.88;;;21.50;97.00;;;;;;5015964;28;20026;-83
2023/09/08 00:24:18;;;;;;;8.32;6.60;;;21.50;97.10;;;;;;5033185;28;20369;-83
2023/09/08 00:26:44;;;;;;;6.57;5.97;;;21.40;97.10;;;;;;5033421;28;20095;-83
2023/09/08 00:29:10;;;;;;;9.32;6.28;;;21.40;97.30;;;;;;5015507;28;20072;-83
2023/09/08 00:31:35;;;;;;;7.45;6.65;;;21.40;97.40;;;;;;5034706;28;20021;-82
2023/09/08 00:34:01;;;;;;;6.90;5.78;;;21.30;97.40;;;;;;5033406;28;20021;-83
2023/09/08 00:36:27;;;;;;;7.68;6.45;;;21.30;97.50;;;;;;5036472;28;20103;-82
2023/09/08 00:38:52;;;;;;;7.93;7.10;;;21.30;97.50;;;;;;5046122;28;20076;-83
2023/09/08 00:41:18;;;;;;;7.35;6.60;;;21.20;97.50;;;;;;5018005;28;20021;-83
2023/09/08 00:43:44;;;;;;;7.45;6.38;;;21.20;97.50;;;;;;5017572;28;20108;-82
2023/09/08 00:46:10;;;;;;;8.43;6.50;;;21.20;97.50;;;;;;5015409;28;20095;-83
2023/09/08 00:48:37;;;;;;;8.18;6.57;;;21.20;97.50;;;;;;5031814;28;20424;-82
2023/09/08 00:51:05;;;;;;;7.60;6.28;;;21.10;97.50;;;;;;5020939;28;20024;-83
2023/09/08 00:53:31;;;;;;;7.38;6.53;;;21.10;97.50;;;;;;5053244;28;20084;-83
2023/09/08 00:55:58;;;;;;;7.00;6.30;;;21.10;97.50;;;;;;5033482;28;20468;-83
2023/09/08 00:58:24;;;;;;;7.40;6.68;;;21.10;97.50;;;;;;5020932;28;20125;-82
2023/09/08 01:00:53;;;;;;;9.52;6.30;;;21.10;97.50;;;;;;5032896;28;20104;-83
2023/09/08 01:03:19;;;;;;;8.45;6.88;;;21.10;97.50;;;;;;5019229;28;20492;-83
2023/09/08 01:05:46;;;;;;;8.00;6.93;;;21.10;97.60;;;;;;5024547;28;20051;-83
2023/09/08 01:08:13;;;;;;;7.72;6.55;;;21.00;97.70;;;;;;5019129;28;20021;-82
2023/09/08 01:10:41;;;;;;;8.23;6.35;;;21.00;97.70;;;;;;5035484;28;20056;-82
2023/09/08 01:13:08;;;;;;;9.07;7.13;;;21.00;97.70;;;;;;5052772;28;20033;-82
2023/09/08 01:15:33;;;;;;;7.85;6.90;;;21.00;97.80;;;;;;5055271;28;20071;-82
2023/09/08 01:17:59;;;;;;;7.70;6.85;;;20.90;97.80;;;;;;5029025;28;20025;-83
2023/09/08 01:20:41;;;;;;;7.15;6.45;;;20.90;97.90;;;;;;5034963;28;20120;-83
2023/09/08 01:23:21;;;;;;;8.27;6.60;;;20.90;98.00;;;;;;5047121;28;20017;-83
2023/09/08 01:25:57;;;;;;;7.93;6.57;;;20.80;98.20;;;;;;5056404;28;20010;-82
2023/09/08 01:28:24;;;;;;;7.53;6.78;;;20.80;98.00;;;;;;5054848;28;20013;-83
2023/09/08 01:30:51;;;;;;;7.47;6.78;;;20.80;98.00;;;;;;5056469;28;20468;-82
2023/09/08 01:33:17;;;;;;;8.27;7.45;;;20.70;98.00;;;;;;5021719;28;20025;-83
2023/09/08 01:35:43;;;;;;;8.07;7.28;;;20.60;98.00;;;;;;5056312;28;20111;-82
2023/09/08 01:38:09;;;;;;;8.38;7.53;;;20.60;98.10;;;;;;5018255;28;20054;-82
2023/09/08 01:40:34;;;;;;;7.65;6.93;;;20.60;98.20;;;;;;5026333;28;20045;-83
2023/09/08 01:43:01;;;;;;;9.07;7.50;;;20.60;98.30;;;;;;5022238;28;20032;-82
2023/09/08 01:45:26;;;;;;;9.00;7.10;;;20.50;98.30;;;;;;5038233;28;20083;-82
2023/09/08 01:47:52;;;;;;;8.45;7.65;;;20.50;98.40;;;;;;5036157;28;20449;-82
2023/09/08 01:50:22;;;;;;;8.52;7.15;;;20.50;98.40;;;;;;5018448;28;20032;-82
2023/09/08 01:52:48;;;;;;;8.32;7.47;;;20.40;98.40;;;;;;5034888;28;20028;-82
2023/09/08 01:55:15;;;;;;;8.85;7.50;;;20.40;98.40;;;;;;5035063;28;20052;-82
2023/09/08 01:57:40;;;;;;;9.10;7.30;;;20.30;98.50;;;;;;5003042;28;20080;-82
2023/09/08 02:00:06;;;;;;;8.00;7.20;;;20.40;98.60;;;;;;5019244;28;20025;-82
2023/09/08 02:02:32;;;;;;;8.25;7.45;;;20.30;98.60;;;;;;5047642;28;20025;-82
2023/09/08 02:04:58;;;;;;;9.00;7.93;;;20.30;98.60;;;;;;5079050;28;20029;-82
2023/09/08 02:07:23;;;;;;;10.25;7.85;;;20.30;98.60;;;;;;5078855;28;20017;-82
2023/09/08 02:09:49;;;;;;;8.85;7.93;;;20.20;98.70;;;;;;5061949;28;20031;-81
2023/09/08 02:12:14;;;;;;;9.80;7.82;;;20.20;98.70;;;;;;5043817;28;20029;-82
2023/09/08 02:14:43;;;;;;;9.07;7.65;;;20.10;98.70;;;;;;5022374;28;20048;-82
2023/09/08 02:17:08;;;;;;;10.02;8.27;;;20.10;98.70;;;;;;5047883;28;20523;-83
2023/09/08 02:19:34;;;;;;;8.27;7.45;;;20.10;98.80;;;;;;5034670;28;20037;-82
2023/09/08 02:22:00;;;;;;;9.00;8.10;;;20.10;98.80;;;;;;5036019;28;20461;-83
2023/09/08 02:24:25;;;;;;;9.93;8.02;;;20.00;98.80;;;;;;5037745;28;20025;-83
2023/09/08 02:26:51;;;;;;;8.77;7.97;;;20.00;98.90;;;;;;5041137;28;20029;-82
2023/09/08 02:29:17;;;;;;;9.77;8.88;;;20.00;98.90;;;;;;5037591;28;20029;-82
2023/09/08 02:31:44;;;;;;;9.60;8.30;;;19.90;99.00;;;;;;5037396;28;20036;-83
2023/09/08 02:34:11;;;;;;;10.27;8.80;;;19.90;99.00;;;;;;5021387;28;20025;-82
2023/09/08 02:36:37;;;;;;;9.40;8.40;;;19.90;99.10;;;;;;5054781;28;20024;-82
2023/09/08 02:39:02;;;;;;;8.63;7.72;;;19.80;99.20;;;;;;5034352;28;20037;-83
2023/09/08 02:41:28;;;;;;;8.90;7.95;;;19.80;99.20;;;;;;5017068;28;20065;-83
2023/09/08 02:43:53;;;;;;;9.65;8.45;;;19.80;99.20;;;;;;5033609;28;20024;-82
2023/09/08 02:46:19;;;;;;;8.93;8.02;;;19.80;99.20;;;;;;5033634;28;20105;-83
2023/09/08 02:48:45;;;;;;;8.98;8.07;;;19.80;99.20;;;;;;5051571;28;20032;-82
2023/09/08 02:51:12;;;;;;;9.10;8.13;;;19.80;99.30;;;;;;5047937;28;20039;-82
2023/09/08 02:53:37;;;;;;;9.88;8.88;;;19.70;99.30;;;;;;5034855;28;20028;-82
2023/09/08 02:56:05;;;;;;;9.95;8.95;;;19.70;99.40;;;;;;5020788;28;20361;-82
2023/09/08 02:58:33;;;;;;;10.18;8.65;;;19.70;99.50;;;;;;5032554;28;20136;-82
2023/09/08 03:01:21;;;;;;;9.43;8.43;;;19.70;99.50;;;;;;5022976;28;20357;-82
2023/09/08 03:03:48;;;;;;;10.18;9.07;;;19.70;99.50;;;;;;5038524;28;20529;-82
2023/09/08 03:06:15;;;;;;;9.48;8.20;;;19.70;99.50;;;;;;5027538;28;20048;-82
2023/09/08 03:08:41;;;;;;;9.77;8.60;;;19.60;99.60;;;;;;5052908;28;20032;-82
2023/09/08 03:11:08;;;;;;;9.75;8.80;;;19.60;99.60;;;;;;5044051;28;20380;-82
2023/09/08 03:13:35;;;;;;;9.18;8.27;;;19.60;99.60;;;;;;5045811;28;20068;-82
2023/09/08 03:16:05;;;;;;;9.88;8.88;;;19.60;99.70;;;;;;5053200;28;20025;-82
2023/09/08 03:18:32;;;;;;;10.32;9.07;;;19.50;99.70;;;;;;5036258;28;20025;-82
2023/09/08 03:20:59;;;;;;;11.48;8.93;;;19.50;99.80;;;;;;5054145;28;20020;-82
2023/09/08 03:23:24;;;;;;;11.50;9.60;;;19.50;99.80;;;;;;5052928;28;20025;-82
2023/09/08 03:25:50;;;;;;;9.68;8.75;;;19.50;99.90;;;;;;5048272;28;20368;-82
2023/09/08 03:28:16;;;;;;;9.20;8.30;;;19.50;99.90;;;;;;5023169;28;20028;-82
2023/09/08 03:30:41;;;;;;;9.93;9.00;;;19.40;99.90;;;;;;5052782;28;20111;-82
2023/09/08 03:33:07;;;;;;;9.88;8.85;;;19.50;99.90;;;;;;5020159;28;20449;-82
2023/09/08 03:35:33;;;;;;;9.93;8.70;;;19.50;99.90;;;;;;5052453;28;20026;-82
2023/09/08 03:37:58;;;;;;;10.32;9.23;;;19.40;99.90;;;;;;5027393;28;20033;-82
2023/09/08 03:40:27;;;;;;;10.68;9.13;;;19.40;99.90;;;;;;5056175;28;20479;-82
2023/09/08 03:42:52;;;;;;;10.10;8.80;;;19.40;99.90;;;;;;5039525;28;20107;-82
2023/09/08 03:45:18;;;;;;;11.57;9.65;;;19.40;99.90;;;;;;5033355;28;20564;-82
2023/09/08 03:47:44;;;;;;;10.40;9.30;;;19.40;99.90;;;;;;5019962;28;20025;-82
2023/09/08 03:50:10;;;;;;;10.15;9.15;;;19.40;99.90;;;;;;5040426;28;20024;-82
2023/09/08 03:52:36;;;;;;;10.18;9.18;;;19.50;99.90;;;;;;5036190;28;20171;-82
2023/09/08 03:55:01;;;;;;;10.65;9.65;;;19.50;99.90;;;;;;5036945;28;20492;-82
2023/09/08 03:57:27;;;;;;;10.88;9.20;;;19.40;99.90;;;;;;5050833;28;20029;-82
2023/09/08 03:59:53;;;;;;;10.48;9.48;;;19.40;99.90;;;;;;5062471;28;20035;-82
2023/09/08 04:02:18;;;;;;;11.63;9.35;;;19.50;99.90;;;;;;5064110;28;20017;-81
2023/09/08 04:04:44;;;;;;;10.65;9.55;;;19.50;99.90;;;;;;5061781;28;20032;-80
2023/09/08 04:07:09;;;;;;;10.77;9.07;;;19.50;99.90;;;;;;5043897;28;20033;-81
2023/09/08 04:09:35;;;;;;;10.90;8.98;;;19.50;99.90;;;;;;5029120;28;20056;-82
2023/09/08 04:12:01;;;;;;;11.20;10.00;;;19.40;99.90;;;;;;5053713;28;20119;-82
2023/09/08 04:14:28;;;;;;;10.98;9.73;;;19.40;99.90;;;;;;5048511;28;20107;-82
2023/09/08 04:16:54;;;;;;;13.20;10.00;;;19.50;99.90;;;;;;5022992;28;20020;-82
2023/09/08 04:19:19;;;;;;;11.65;10.45;;;19.50;99.90;;;;;;5055617;28;20384;-82
2023/09/08 04:21:45;;;;;;;10.40;9.48;;;19.40;99.90;;;;;;5073113;28;20503;-82
2023/09/08 04:24:13;;;;;;;11.77;10.00;;;19.40;99.90;;;;;;5072369;28;20021;-82
2023/09/08 04:26:39;;;;;;;11.70;9.95;;;19.50;99.90;;;;;;5043357;28;20373;-82
2023/09/08 04:29:04;;;;;;;11.55;10.43;;;19.40;99.90;;;;;;5026606;28;20033;-82
2023/09/08 04:31:30;;;;;;;11.68;10.43;;;19.50;99.90;;;;;;5035305;28;20025;-82
2023/09/08 04:33:56;;;;;;;11.60;10.02;;;19.40;99.90;;;;;;5010909;28;20113;-82
2023/09/08 04:36:21;;;;;;;10.60;9.38;;;19.40;99.90;;;;;;5036169;28;20025;-82
2023/09/08 04:38:47;;;;;;;11.73;10.52;;;19.40;99.90;;;;;;5055744;28;20417;-82
2023/09/08 04:41:13;;;;;;;12.23;10.00;;;19.40;99.90;;;;;;5075533;28;20028;-82
2023/09/08 04:43:38;;;;;;;11.73;10.50;;;19.40;99.90;;;;;;5070175;28;20028;-82
2023/09/08 04:46:04;;;;;;;10.57;9.48;;;19.30;99.90;;;;;;5022465;28;20025;-82
2023/09/08 04:48:30;;;;;;;11.85;10.57;;;19.30;99.90;;;;;;5016244;28;20032;-82
2023/09/08 04:50:57;;;;;;;12.02;10.63;;;19.30;99.90;;;;;;5064999;28;20021;-82
2023/09/08 04:53:22;;;;;;;10.98;9.85;;;19.30;99.90;;;;;;5054474;28;20024;-82
2023/09/08 04:55:48;;;;;;;11.05;9.95;;;19.30;99.90;;;;;;5048277;28;20047;-82
2023/09/08 04:58:14;;;;;;;11.98;10.68;;;19.30;99.90;;;;;;5028610;28;20108;-82
2023/09/08 05:00:39;;;;;;;11.77;10.07;;;19.40;99.90;;;;;;5045192;28;20180;-82
2023/09/08 05:03:06;;;;;;;13.70;10.70;;;19.30;99.90;;;;;;5031761;28;20115;-81
2023/09/08 05:05:32;;;;;;;11.90;10.50;;;19.30;99.90;;;;;;5025298;28;20082;-81
2023/09/08 05:07:58;;;;;;;11.52;9.65;;;19.30;99.90;;;;;;5025054;28;20108;-81
2023/09/08 05:10:24;;;;;;;11.40;10.20;;;19.30;99.90;;;;;;5039621;28;20334;-82
2023/09/08 05:12:49;;;;;;;12.13;10.23;;;19.30;99.90;;;;;;5038529;28;20059;-82
2023/09/08 05:15:16;;;;;;;10.43;9.32;;;19.30;99.90;;;;;;5042042;28;20052;-82
2023/09/08 05:17:42;;;;;;;12.63;11.15;;;19.30;99.90;;;;;;5058426;28;20052;-81
2023/09/08 05:20:08;;;;;;;12.57;10.48;;;19.40;99.90;;;;;;5053718;28;20444;-81
2023/09/08 05:22:34;;;;;;;12.55;11.25;;;19.30;99.90;;;;;;5040772;28;20470;-81
2023/09/08 05:25:00;;;;;;;11.50;10.00;;;19.30;99.90;;;;;;5047742;28;20106;-81
2023/09/08 05:27:25;;;;;;;12.63;10.55;;;19.30;99.90;;;;;;5056113;28;20048;-81
2023/09/08 05:29:51;;;;;;;12.13;10.77;;;19.30;99.90;;;;;;5020384;28;20373;-81
2023/09/08 05:32:17;;;;;;;13.30;10.30;;;19.30;99.90;;;;;;5038620;28;20017;-81
2023/09/08 05:34:42;;;;;;;12.57;10.95;;;19.30;99.90;;;;;;5022093;28;20024;-81
2023/09/08 05:37:08;;;;;;;11.32;10.23;;;19.30;99.90;;;;;;5030891;28;20020;-81
2023/09/08 05:39:34;;;;;;;11.70;10.50;;;19.30;99.90;;;;;;5047642;28;20041;-81
2023/09/08 05:42:00;;;;;;;12.98;11.18;;;19.30;99.90;;;;;;5021776;28;20116;-82
2023/09/08 05:44:25;;;;;;;11.65;10.45;;;19.30;99.90;;;;;;5045531;28;20017;-82
2023/09/08 05:46:51;;;;;;;12.00;10.70;;;19.30;99.90;;;;;;5058305;28;20032;-82
2023/09/08 05:49:17;;;;;;;12.75;10.43;;;19.40;99.90;;;;;;5043153;28;20376;-82
2023/09/08 05:51:44;;;;;;;11.35;10.13;;;19.40;99.90;;;;;;5073873;28;20072;-82
2023/09/08 05:54:10;;;;;;;11.93;10.45;;;19.40;99.90;;;;;;5100070;28;20020;-81
2023/09/08 05:56:37;;;;;;;11.27;10.10;;;19.40;99.90;;;;;;5075793;28;20088;-79
2023/09/08 05:59:02;;;;;;;13.05;10.63;;;19.40;99.90;;;;;;5046595;28;20059;-81
2023/09/08 06:01:29;;;;;;;12.40;10.93;;;19.40;99.90;;;;;;5063225;28;20025;-81
2023/09/08 06:03:55;;;;;;;11.45;10.18;;;19.50;99.90;;;;;;5059929;28;20029;-82
2023/09/08 06:06:25;;;;;;;13.30;10.70;;;19.50;99.90;;;;;;5070864;28;20020;-81
2023/09/08 06:08:53;;;;;;;11.15;9.95;;;19.50;99.90;;;;;;5025130;28;20020;-82
2023/09/08 06:11:19;;;;;;;15.00;10.75;;;19.50;99.90;;;;;;5057752;28;20021;-82
2023/09/08 06:13:45;;;;;;;13.18;10.98;;;19.60;99.90;;;;;;5055734;28;20024;-82
2023/09/08 06:16:10;;;;;;;12.20;9.65;;;19.60;99.90;;;;;;5037433;28;20111;-82
2023/09/08 06:18:39;;;;;;;11.85;9.82;;;19.60;99.90;;;;;;5055062;28;20032;-82
2023/09/08 06:21:07;;;;;;;13.43;10.80;;;19.70;99.90;;;;;;5021219;28;20029;-82
2023/09/08 06:23:33;;;;;;;11.65;9.48;;;19.70;99.90;;;;;;5037597;28;20032;-82
2023/09/08 06:26:00;;;;;;;11.65;10.27;;;19.70;99.90;;;;;;5055112;28;20021;-82
2023/09/08 06:28:29;;;;;;;11.95;10.25;;;19.80;99.90;;;;;;5021153;28;20029;-82
2023/09/08 06:30:55;;;;;;;11.80;10.43;;;19.80;99.90;;;;;;5043752;28;20252;-82
2023/09/08 06:33:23;;;;;;;11.75;10.50;;;19.80;99.90;;;;;;5057240;28;20048;-82
2023/09/08 06:35:49;;;;;;;12.63;9.80;;;19.80;99.90;;;;;;5040377;28;20029;-82
2023/09/08 06:38:15;;;;;;;13.10;10.43;;;19.90;99.90;;;;;;5056839;28;20502;-82
2023/09/08 06:40:41;;;;;;;12.45;10.45;;;19.90;99.90;;;;;;5045638;28;20041;-82
2023/09/08 06:43:06;;;;;;;11.75;9.50;;;20.00;99.90;;;;;;5011269;28;20124;-82
2023/09/08 06:45:32;;;;;;;11.80;9.48;;;20.00;99.90;;;;;;5029463;28;20048;-82
2023/09/08 06:47:59;;;;;;;10.25;9.15;;;20.00;99.90;;;;;;5036823;28;20049;-82
2023/09/08 06:50:26;;;;;;;11.20;9.57;;;20.10;99.90;;;;;;5038641;28;20094;-82
2023/09/08 06:52:52;;;;;;;11.48;9.55;;;20.10;99.90;;;;;;5056581;28;20021;-82
2023/09/08 06:55:18;;;;;;;13.70;10.13;;;20.10;99.90;;;;;;5039884;28;20029;-82
2023/09/08 06:57:44;;;;;;;10.73;9.35;;;20.20;99.90;;;;;;5067473;28;20367;-82
2023/09/08 07:00:13;;;;;;;11.02;9.27;;;20.30;99.90;;;;;;5035666;28;20029;-82
2023/09/08 07:02:40;;;;;;;10.80;9.70;;;20.30;99.90;;;;;;5004618;28;20437;-82
2023/09/08 07:05:07;;;;;;;10.82;8.73;;;20.40;99.90;;;;;;5056089;28;20426;-82
2023/09/08 07:07:34;;;;;;;11.52;8.68;;;20.50;99.90;;;;;;5074405;28;20044;-82
2023/09/08 07:10:00;;;;;;;11.63;8.75;;;20.50;99.90;;;;;;5074295;28;20141;-82
2023/09/08 07:12:25;;;;;;;11.85;9.20;;;20.50;99.90;;;;;;5056381;28;20115;-82
2023/09/08 07:14:51;;;;;;;10.02;8.75;;;20.60;99.90;;;;;;5039639;28;20020;-82
2023/09/08 07:17:17;;;;;;;10.02;8.68;;;20.70;99.90;;;;;;5073869;28;20020;-82
2023/09/08 07:19:42;;;;;;;10.55;9.45;;;20.70;99.90;;;;;;5054687;28;20419;-82
2023/09/08 07:22:08;;;;;;;10.30;9.15;;;20.80;99.90;;;;;;5033227;28;20058;-82
2023/09/08 07:24:33;;;;;;;11.95;9.18;;;20.80;99.90;;;;;;5074309;28;20044;-83
2023/09/08 07:27:00;;;;;;;10.25;8.13;;;20.90;99.90;;;;;;5039187;28;20020;-82
2023/09/08 07:29:26;;;;;;;10.73;7.10;;;20.90;99.90;;;;;;5056503;28;20122;-82
2023/09/08 07:31:51;;;;;;;8.82;7.70;;;21.00;99.90;;;;;;5035982;28;20501;-82
2023/09/08 07:34:17;;;;;;;8.30;7.32;;;21.00;99.90;;;;;;5054181;28;20096;-82
2023/09/08 07:36:43;;;;;;;8.05;7.07;;;21.10;99.90;;;;;;5011018;28;20036;-82
2023/09/08 07:39:08;;;;;;;7.97;7.18;;;21.20;99.90;;;;;;5039333;28;20152;-82
2023/09/08 07:41:34;;;;;;;8.82;7.47;;;21.30;99.90;;;;;;5037734;28;20419;-82
2023/09/08 07:44:00;;;;;;;8.38;7.55;;;21.30;99.90;;;;;;5036714;28;20033;-82
2023/09/08 07:46:26;;;;;;;11.10;7.43;;;21.40;99.90;;;;;;5046234;28;20035;-82
2023/09/08 07:48:52;;;;;;;8.32;7.18;;;21.50;99.80;;;;;;5060296;28;20025;-82
2023/09/08 07:51:18;;;;;;;8.60;7.70;;;21.50;99.70;;;;;;5059749;28;20037;-81
2023/09/08 07:53:43;;;;;;;7.95;6.78;;;21.60;99.70;;;;;;5040759;28;20021;-82
2023/09/08 07:56:09;;;;;;;9.07;7.55;;;21.70;99.60;;;;;;5074336;28;20017;-81
2023/09/08 07:58:36;;;;;;;9.77;7.35;;;21.70;99.50;;;;;;5084009;28;20088;-81
2023/09/08 08:01:02;;;;;;;10.23;7.78;;;21.80;99.50;;;;;;5076496;28;20022;-82
2023/09/08 08:03:27;;;;;;;8.73;7.63;;;21.80;99.40;;;;;;5039319;28;20174;-83
2023/09/08 08:05:53;;;;;;;9.68;6.97;;;21.90;99.30;;;;;;5009934;28;20454;-82
2023/09/08 08:08:19;;;;;;;9.05;7.75;;;22.00;99.30;;;;;;5024577;28;20025;-82
2023/09/08 08:10:44;;;;;;;9.95;6.75;;;22.00;99.20;;;;;;5030994;28;20093;-82
2023/09/08 08:13:10;;;;;;;9.27;7.43;;;22.10;99.10;;;;;;5055036;28;20476;-82
2023/09/08 08:15:42;;;;;;;7.65;6.43;;;22.20;99.10;;;;;;5052896;28;20479;-82
2023/09/08 08:18:09;;;;;;;7.28;6.57;;;22.20;99.10;;;;;;5034769;28;20017;-82
2023/09/08 08:20:35;;;;;;;9.35;6.78;;;22.30;99.10;;;;;;5035026;28;20029;-82
2023/09/08 08:23:02;;;;;;;8.90;6.53;;;22.30;99.00;;;;;;5035550;28;20020;-82
2023/09/08 08:25:28;;;;;;;10.13;8.15;;;22.40;99.00;;;;;;5053256;28;20112;-82
2023/09/08 08:27:54;;;;;;;7.80;7.00;;;22.40;98.90;;;;;;5035283;28;20117;-82
2023/09/08 08:30:20;;;;;;;7.85;6.13;;;22.50;98.80;;;;;;5021902;28;20024;-82
2023/09/08 08:32:45;;;;;;;8.07;6.30;;;22.50;98.80;;;;;;5038377;28;20031;-82
2023/09/08 08:35:11;;;;;;;9.02;6.63;;;22.60;98.80;;;;;;5054493;28;20027;-82
2023/09/08 08:37:40;;;;;;;6.88;6.18;;;22.60;98.80;;;;;;5046114;28;20096;-82
2023/09/08 08:40:06;;;;;;;8.32;6.93;;;22.70;98.80;;;;;;5052534;28;20543;-82
2023/09/08 08:42:33;;;;;;;7.47;6.30;;;22.80;98.70;;;;;;5043309;28;20013;-82
2023/09/08 08:45:00;;;;;;;7.88;6.25;;;22.90;98.70;;;;;;5018491;28;20029;-82
2023/09/08 08:47:28;;;;;;;8.05;7.25;;;22.90;98.60;;;;;;5022122;28;20099;-82
2023/09/08 08:49:58;;;;;;;10.07;7.13;;;23.00;98.60;;;;;;5073107;28;20029;-83
2023/09/08 08:52:28;;;;;;;8.38;6.50;;;23.10;98.50;;;;;;5055207;28;20452;-82
2023/09/08 08:54:54;;;;;;;7.55;6.80;;;23.10;98.40;;;;;;5043405;28;20460;-82
2023/09/08 08:57:21;;;;;;;8.82;7.03;;;23.20;98.40;;;;;;5052282;28;20025;-83
2023/09/08 08:59:49;;;;;;;9.10;7.40;;;23.30;98.30;;;;;;5058032;28;20064;-82
2023/09/08 09:02:15;;;;;;;7.38;6.55;;;23.40;98.30;;;;;;5034795;28;20460;-83
2023/09/08 09:04:41;;;;;;;6.90;6.20;;;23.50;98.30;;;;;;5039210;28;20056;-82
2023/09/08 09:07:08;;;;;;;6.45;5.80;;;23.60;98.20;;;;;;5048078;28;20017;-82
2023/09/08 09:09:33;;;;;;;8.73;7.40;;;23.60;98.20;;;;;;5049592;28;20166;-82
2023/09/08 09:11:59;;;;;;;8.60;7.22;;;23.70;98.10;;;;;;5036163;28;20112;-82
2023/09/08 09:14:25;;;;;;;8.25;6.20;;;23.80;98.00;;;;;;5072842;28;20029;-82
2023/09/08 09:16:51;;;;;;;10.07;6.57;;;23.80;98.00;;;;;;5038351;28;20075;-82
2023/09/08 09:19:27;;;;;;;9.27;7.25;;;23.90;98.10;;;;;;5054246;28;20422;-82
2023/09/08 09:21:54;;;;;;;7.10;6.43;;;23.90;98.10;;;;;;5023856;28;20027;-83
2023/09/08 09:24:33;;;;;;;7.90;6.38;;;24.10;98.10;;;;;;5022436;28;20017;-83
2023/09/08 09:27:00;;;;;;;7.53;6.72;;;24.10;98.10;;;;;;5047787;28;20016;-83
2023/09/08 09:29:28;;;;;;;8.90;6.72;;;24.10;98.20;;;;;;5054121;28;20033;-83
2023/09/08 09:31:55;;;;;;;9.90;8.32;;;24.20;98.20;;;;;;5035566;28;20025;-82
2023/09/08 09:34:22;;;;;;;6.93;6.22;;;24.30;98.00;;;;;;5038208;28;20427;-82
2023/09/08 09:36:49;;;;;;;7.30;6.60;;;24.30;98.00;;;;;;5056024;28;20476;-82
2023/09/08 09:39:23;;;;;;;7.05;6.13;;;24.30;98.00;;;;;;5038304;28;20059;-83
2023/09/08 09:41:52;;;;;;;6.70;6.10;;;24.40;98.00;;;;;;5072250;28;20024;-83
2023/09/08 09:44:18;;;;;;;7.57;6.40;;;24.50;98.10;;;;;;5076381;28;20024;-83
2023/09/08 09:46:45;;;;;;;8.15;6.32;;;24.50;98.10;;;;;;5058393;28;20526;-82
2023/09/08 09:49:13;;;;;;;9.80;8.40;;;24.60;98.00;;;;;;5033007;28;20036;-82
2023/09/08 09:51:47;;;;;;;9.30;7.15;;;24.70;97.70;;;;;;5075363;28;20033;-82
2023/09/08 09:54:14;;;;;;;9.23;6.90;;;24.70;97.60;;;;;;5094938;28;20017;-83
2023/09/08 09:56:40;;;;;;;6.82;6.07;;;24.80;97.70;;;;;;5055284;28;20016;-81
2023/09/08 09:59:09;;;;;;;8.00;6.32;;;24.90;97.70;;;;;;5054656;28;20036;-81
2023/09/08 10:01:36;;;;;;;7.97;7.18;;;24.90;97.70;;;;;;5062364;28;20028;-82
2023/09/08 10:04:03;;;;;;;9.57;6.43;;;24.90;97.70;;;;;;5072393;28;20044;-82
2023/09/08 10:06:34;;;;;;;7.53;6.55;;;25.00;97.70;;;;;;5069494;28;20462;-83
2023/09/08 10:09:04;;;;;;;6.00;5.38;;;25.10;97.70;;;;;;5046357;28;20361;-83
2023/09/08 10:11:37;;;;;;;6.45;5.75;;;25.10;97.70;;;;;;5044304;28;20463;-82
2023/09/08 10:14:06;;;;;;;9.20;7.65;;;25.20;97.70;;;;;;5055554;28;20050;-83
2023/09/08 10:16:34;;;;;;;9.27;7.95;;;25.20;97.60;;;;;;5068415;28;20017;-82
2023/09/08 10:19:06;;;;;;;9.52;7.88;;;25.30;97.40;;;;;;5047452;28;20033;-83
2023/09/08 10:21:34;;;;;;;7.10;6.40;;;25.40;97.30;;;;;;5039584;28;20483;-83
2023/09/08 10:24:12;;;;;;;7.65;6.93;;;25.50;97.60;;;;;;5055464;28;20047;-83
2023/09/08 10:26:42;;;;;;;7.55;6.60;;;25.50;97.30;;;;;;5049958;28;20009;-83
2023/09/08 10:29:10;;;;;;;8.23;6.75;;;25.60;97.20;;;;;;5051478;28;20016;-83
2023/09/08 10:31:36;;;;;;;6.05;5.32;;;25.60;97.30;;;;;;5047388;28;20045;-83
2023/09/08 10:34:03;;;;;;;6.25;5.30;;;25.70;97.30;;;;;;5029117;28;20025;-83
2023/09/08 10:36:29;;;;;;;9.00;8.00;;;25.70;97.40;;;;;;5057129;28;20020;-83
2023/09/08 10:39:31;;;;;;;7.38;6.57;;;25.80;97.20;;;;;;5056310;28;20044;-83
2023/09/08 10:42:22;;;;;;;8.15;5.50;;;25.90;97.00;;;;;;5070948;28;20024;-83
2023/09/08 10:44:47;;;;;;;;;;;25.90;97.10;;;;;;5037139;28;20117;-83
2023/09/08 10:47:13;;;;;;;6.88;5.53;;;25.90;97.10;;;;;;5074123;28;19901;-83
2023/09/08 10:49:41;;;;;;;7.90;6.50;;;26.00;97.50;;;;;;5074617;28;20024;-83
2023/09/08 10:52:12;;;;;;;7.65;6.32;;;26.00;97.10;;;;;;5074839;28;20020;-83
2023/09/08 10:54:41;;;;;;;6.47;5.45;;;26.10;97.00;;;;;;5037574;28;20032;-84
2023/09/08 10:57:13;;;;;;;5.53;5.03;;;26.20;97.10;;;;;;5042779;28;20103;-83
2023/09/08 10:59:40;;;;;;;5.72;5.10;;;26.20;97.10;;;;;;5074379;28;20024;-83
2023/09/08 11:02:05;;;;;;;5.85;4.97;;;26.30;97.00;;;;;;5056181;28;20035;-83
2023/09/08 11:04:33;;;;;;;5.93;5.22;;;26.30;96.90;;;;;;5073986;28;20107;-83
2023/09/08 11:07:00;;;;;;;5.55;4.95;;;26.40;97.00;;;;;;5047999;28;20099;-83
2023/09/08 11:09:26;;;;;;;5.88;5.28;;;26.50;96.90;;;;;;5022858;28;20032;-83
2023/09/08 11:11:51;;;;;;;6.40;5.18;;;26.50;96.90;;;;;;5036420;28;20036;-83
2023/09/08 11:14:17;;;;;;;5.90;4.75;;;26.50;96.90;;;;;;5053994;28;20017;-82
2023/09/08 11:16:43;;;;;;;5.50;5.00;;;26.60;96.90;;;;;;5060313;28;20100;-83
2023/09/08 11:19:10;;;;;;;5.57;5.03;;;26.70;96.90;;;;;;5039632;28;20029;-83
2023/09/08 11:21:36;;;;;;;5.03;4.53;;;26.80;96.80;;;;;;5039094;28;20468;-83
2023/09/08 11:24:04;;;;;;;5.25;4.75;;;26.80;96.70;;;;;;5062959;28;20086;-83
2023/09/08 11:26:34;;;;;;;5.18;4.60;;;26.90;96.60;;;;;;5035988;28;20058;-83
2023/09/08 11:28:59;;;;;;;5.20;4.70;;;26.90;96.60;;;;;;5054058;28;20028;-83
2023/09/08 11:31:25;;;;;;;6.35;4.75;;;27.00;96.50;;;;;;5021447;28;20349;-83
2023/09/08 11:33:55;;;;;;;4.75;4.20;;;27.10;96.30;;;;;;5069000;28;20119;-83
2023/09/08 11:36:23;;;;;;;4.90;4.45;;;27.10;96.30;;;;;;5019626;28;20055;-83
2023/09/08 11:38:49;;;;;;;4.82;4.40;;;27.20;96.30;;;;;;5036093;28;20103;-83
2023/09/08 11:41:14;;;;;;;4.85;4.35;;;27.20;96.20;;;;;;5046355;28;20412;-83
2023/09/08 11:43:40;;;;;;;4.40;3.95;;;27.30;96.40;;;;;;5035755;28;20318;-83
2023/09/08 11:46:06;;;;;;;5.43;4.18;;;27.40;96.10;;;;;;5053554;28;20025;-83
2023/09/08 11:48:32;;;;;;;4.88;4.32;;;27.40;95.70;;;;;;5053667;28;20021;-83
2023/09/08 11:50:58;;;;;;;4.60;4.10;;;27.40;95.70;;;;;;5043555;28;20023;-83
2023/09/08 11:53:25;;;;;;;6.55;4.60;;;27.40;95.80;;;;;;5040157;28;20029;-83
2023/09/08 11:55:50;;;;;;;4.90;4.40;;;27.50;95.70;;;;;;5082701;28;20024;-83
2023/09/08 11:58:18;;;;;;;4.78;4.07;;;27.50;95.70;;;;;;5094480;28;20020;-83
2023/09/08 12:00:45;;;;;;;5.07;4.57;;;27.60;95.70;;;;;;5063363;28;20067;-83
2023/09/08 12:03:15;;;;;;;5.25;4.45;;;27.60;95.50;;;;;;5080001;28;20013;-82
2023/09/08 12:05:42;;;;;;;5.35;4.30;;;27.60;95.40;;;;;;5076232;28;20017;-82
2023/09/08 12:08:08;;;;;;;5.72;4.70;;;27.70;95.50;;;;;;5064966;28;20107;-80
2023/09/08 12:10:41;;;;;;;8.38;4.22;;;27.70;95.30;;;;;;5043388;28;20063;-83
2023/09/08 12:13:07;;;;;;;7.60;4.50;;;27.80;95.30;;;;;;5056480;28;20040;-83
2023/09/08 12:15:40;;;;;;;5.28;4.03;;;27.80;95.30;;;;;;5072902;28;20032;-82
2023/09/08 12:18:11;;;;;;;5.20;4.70;;;27.90;95.40;;;;;;5039128;28;20097;-83
2023/09/08 12:20:38;;;;;;;4.93;4.53;;;27.90;95.30;;;;;;5047253;28;20028;-83
2023/09/08 12:23:14;;;;;;;5.25;4.03;;;27.90;95.30;;;;;;5035346;28;20017;-83
2023/09/08 12:25:51;;;;;;;5.22;4.72;;;28.00;95.30;;;;;;5052864;28;20341;-83
2023/09/08 12:28:19;;;;;;;4.82;4.00;;;28.00;95.20;;;;;;5050682;28;20367;-83
2023/09/08 12:30:45;;;;;;;5.68;5.10;;;28.00;95.20;;;;;;5054655;28;20475;-83
2023/09/08 12:33:13;;;;;;;7.70;5.32;;;28.10;95.20;;;;;;5038194;28;20162;-83
2023/09/08 12:35:38;;;;;;;5.45;4.65;;;28.10;95.10;;;;;;5038206;28;20064;-83
2023/09/08 12:38:05;;;;;;;5.43;4.50;;;28.10;95.10;;;;;;5050531;28;20071;-83
2023/09/08 12:40:34;;;;;;;5.13;4.60;;;28.10;95.10;;;;;;5030975;28;20056;-83
2023/09/08 12:43:00;;;;;;;5.35;4.45;;;28.10;94.90;;;;;;5045577;28;20032;-83